createdAt,value
2022-08-13T00:00:12.850Z,10
2022-08-13T00:05:42.654Z,13
2022-08-13T00:11:28.157Z,10
2022-08-13T00:17:50.054Z,8
2022-08-13T00:23:58.266Z,7
2022-08-13T00:29:52.484Z,10
2022-08-13T00:34:56.695Z,7
2022-08-13T00:41:07.452Z,9
2022-08-13T00:47:18.159Z,6
2022-08-13T00:53:42.116Z,10
2022-08-13T00:59:43.762Z,7
2022-08-13T01:05:50.045Z,7
2022-08-13T01:12:00.682Z,9
2022-08-13T01:18:11.372Z,8
2022-08-13T01:24:14.563Z,6
2022-08-13T01:30:24.511Z,8
2022-08-13T01:36:55.039Z,10
2022-08-13T01:42:46.179Z,8
2022-08-13T01:48:59.720Z,6
2022-08-13T01:55:07.174Z,7
2022-08-13T02:01:17.882Z,7
2022-08-13T02:07:28.503Z,6
2022-08-13T02:13:55.571Z,6
2022-08-13T02:21:18.001Z,8
2022-08-13T02:27:22.865Z,5
2022-08-13T02:33:41.490Z,6
2022-08-13T02:39:44.421Z,7
2022-08-13T02:45:54.840Z,8
2022-08-13T02:52:07.648Z,7
2022-08-13T02:58:16.168Z,9
2022-08-13T03:04:32.795Z,7
2022-08-13T03:10:40.211Z,8
2022-08-13T03:16:48.162Z,10
2022-08-13T03:22:50.682Z,10
2022-08-13T03:29:01.367Z,8
2022-08-13T03:35:14.952Z,8
2022-08-13T03:41:22.657Z,8
2022-08-13T03:47:33.335Z,9
2022-08-13T03:53:44.289Z,7
2022-08-13T04:00:00.864Z,8
2022-08-13T04:06:05.324Z,9
2022-08-13T04:12:17.840Z,8
2022-08-13T04:19:32.593Z,11
2022-08-13T04:25:43.252Z,9
2022-08-13T04:31:54.754Z,9
2022-08-13T04:38:04.622Z,8
2022-08-13T04:43:25.722Z,8
2022-08-13T04:49:36.375Z,10
2022-08-13T04:56:08.634Z,10
2022-08-13T05:02:01.775Z,11
2022-08-13T05:08:08.379Z,8
2022-08-13T05:14:19.053Z,8
2022-08-13T05:20:35.459Z,12
2022-08-13T05:26:56.904Z,7
2022-08-13T05:32:44.577Z,8
2022-08-13T05:38:53.538Z,6
2022-08-13T05:45:09.040Z,10
2022-08-13T05:51:14.898Z,10
2022-08-13T05:57:25.531Z,7
2022-08-13T06:04:16.854Z,10
2022-08-13T06:09:46.885Z,10
2022-08-13T06:16:05.053Z,7
2022-08-13T06:23:15.125Z,10
2022-08-13T06:29:24.805Z,8
2022-08-13T06:35:45.039Z,7
2022-08-13T06:42:01.970Z,8
2022-08-13T06:47:59.865Z,6
2022-08-13T06:54:23.122Z,10
2022-08-13T07:00:26.795Z,23
2022-08-13T07:06:28.855Z,9
2022-08-13T07:12:39.611Z,10
2022-08-13T07:17:54.280Z,10
2022-08-13T07:24:38.635Z,9
2022-08-13T07:30:05.541Z,12
2022-08-13T07:36:16.220Z,10
2022-08-13T07:42:29.984Z,10
2022-08-13T07:48:43.717Z,11
2022-08-13T07:54:49.638Z,12
2022-08-13T08:00:58.866Z,7
2022-08-13T08:07:10.174Z,5
2022-08-13T08:13:20.209Z,7
2022-08-13T08:20:14.544Z,10
2022-08-13T08:25:34.305Z,8
2022-08-13T08:32:00.061Z,10
2022-08-13T08:37:59.270Z,23
2022-08-13T08:44:05.372Z,28
2022-08-13T08:49:16.811Z,16
2022-08-13T08:55:22.868Z,9
2022-08-13T09:01:31.420Z,11
2022-08-13T09:07:42.251Z,23
2022-08-13T09:16:21.040Z,22
2022-08-13T09:21:26.302Z,15
2022-08-13T09:28:11.094Z,15
2022-08-13T09:33:58.984Z,10
2022-08-13T09:41:08.600Z,10
2022-08-13T09:46:20.019Z,26
2022-08-13T09:52:27.300Z,24
2022-08-13T09:58:42.356Z,27
2022-08-13T10:04:48.623Z,16
2022-08-13T10:10:59.280Z,33
2022-08-13T10:17:09.946Z,10
2022-08-13T10:24:42.971Z,23
2022-08-13T10:32:07.775Z,23
2022-08-13T10:39:44.406Z,23
2022-08-13T10:46:54.203Z,34
2022-08-13T10:52:03.699Z,36
2022-08-13T10:58:09.956Z,22
2022-08-13T11:04:15.256Z,27
2022-08-13T11:10:32.649Z,39
2022-08-13T11:16:36.842Z,32
2022-08-13T11:22:49.983Z,27
2022-08-13T11:30:12.043Z,48
2022-08-13T11:36:22.737Z,47
2022-08-13T11:42:33.383Z,30
2022-08-13T11:49:51.303Z,47
2022-08-13T11:56:04.467Z,34
2022-08-13T12:02:14.984Z,55
2022-08-13T12:09:00.865Z,44
2022-08-13T12:13:43.374Z,28
2022-08-13T12:19:45.609Z,45
2022-08-13T12:26:02.820Z,45
2022-08-13T12:33:22.183Z,37
2022-08-13T12:39:52.133Z,47
2022-08-13T12:47:04.729Z,47
2022-08-13T12:54:31.086Z,47
2022-08-13T13:00:40.182Z,32
2022-08-13T13:05:44.920Z,46
2022-08-13T13:10:49.945Z,26
2022-08-13T13:17:00.313Z,31
2022-08-13T13:23:10.974Z,30
2022-08-13T13:29:21.634Z,36
2022-08-13T13:34:26.391Z,32
2022-08-13T13:40:41.187Z,41
2022-08-13T13:46:49.809Z,32
2022-08-13T13:53:21.234Z,34
2022-08-13T13:59:09.066Z,47
2022-08-13T14:04:13.861Z,47
2022-08-13T14:11:44.155Z,37
2022-08-13T14:19:03.403Z,37
2022-08-13T14:26:28.187Z,37
2022-08-13T14:32:41.417Z,41
2022-08-13T14:37:51.844Z,58
2022-08-13T14:43:17.053Z,58
2022-08-13T14:49:23.552Z,31
2022-08-13T14:55:34.251Z,36
2022-08-13T15:03:12.328Z,36
2022-08-13T15:10:32.006Z,36
2022-08-13T15:17:56.839Z,36
2022-08-13T15:23:51.101Z,36
2022-08-13T15:28:55.841Z,44
2022-08-13T15:35:06.504Z,54
2022-08-13T15:41:17.186Z,40
2022-08-13T15:47:27.849Z,51
2022-08-13T15:53:38.500Z,34
2022-08-13T15:59:49.179Z,44
2022-08-13T16:05:59.834Z,30
2022-08-13T16:12:11.126Z,16
2022-08-13T16:18:28.317Z,36
2022-08-13T16:24:23.652Z,45
2022-08-13T16:30:34.311Z,58
2022-08-13T16:36:44.973Z,39
2022-08-13T16:42:55.641Z,53
2022-08-13T16:49:06.331Z,29
2022-08-13T16:55:16.982Z,25
2022-08-13T17:01:30.921Z,29
2022-08-13T17:07:38.324Z,35
2022-08-13T17:14:05.411Z,17
2022-08-13T17:20:16.067Z,29
2022-08-13T17:26:18.662Z,18
2022-08-13T17:32:29.361Z,19
2022-08-13T17:38:39.875Z,20
2022-08-13T17:44:51.256Z,24
2022-08-13T17:51:08.302Z,12
2022-08-13T17:57:15.249Z,17
2022-08-13T18:03:24.357Z,8
2022-08-13T18:08:27.849Z,9
2022-08-13T18:14:49.735Z,9
2022-08-13T18:20:48.623Z,9
2022-08-13T18:26:57.500Z,8
2022-08-13T18:33:02.526Z,8
2022-08-13T18:39:14.741Z,9
2022-08-13T18:45:24.998Z,9
2022-08-13T18:51:41.109Z,5
2022-08-13T18:57:44.427Z,5
2022-08-13T19:04:00.631Z,3
2022-08-13T19:10:05.777Z,5
2022-08-13T19:16:17.851Z,6
2022-08-13T19:22:31.955Z,5
2022-08-13T19:28:34.478Z,3
2022-08-13T19:34:40.751Z,6
2022-08-13T19:40:52.865Z,7
2022-08-13T19:46:07.809Z,7
2022-08-13T19:52:14.477Z,9
2022-08-13T19:58:26.093Z,8
2022-08-13T20:04:39.439Z,7
2022-08-13T20:10:46.490Z,6
2022-08-13T20:16:57.167Z,8
2022-08-13T20:23:07.947Z,8
2022-08-13T20:29:18.360Z,8
2022-08-13T20:35:22.056Z,6
2022-08-13T20:41:48.384Z,6
2022-08-13T20:48:03.605Z,7
2022-08-13T20:55:15.756Z,8
2022-08-13T21:01:18.213Z,8
2022-08-13T21:07:28.450Z,6
2022-08-13T21:13:39.117Z,6
2022-08-13T21:19:58.284Z,10
2022-08-13T21:26:02.840Z,9
2022-08-13T21:32:10.382Z,8
2022-08-13T21:38:13.602Z,6
2022-08-13T21:44:26.777Z,6
2022-08-13T21:50:34.937Z,5
2022-08-13T21:56:45.566Z,5
2022-08-13T22:02:56.244Z,6
2022-08-13T22:09:06.924Z,7
2022-08-13T22:14:28.025Z,8
2022-08-13T22:20:38.684Z,9
2022-08-13T22:26:49.386Z,9
2022-08-13T22:32:51.851Z,4
2022-08-13T22:39:02.512Z,7
2022-08-13T22:45:14.690Z,5
2022-08-13T22:51:24.340Z,7
2022-08-13T22:57:34.521Z,6
2022-08-13T23:03:45.426Z,6
2022-08-13T23:09:55.869Z,6
2022-08-13T23:16:06.505Z,6
2022-08-13T23:22:29.677Z,9
2022-08-13T23:28:20.926Z,7
2022-08-13T23:34:30.373Z,10
2022-08-13T23:40:40.998Z,9
2022-08-13T23:46:53.904Z,7
2022-08-13T23:54:16.482Z,8
